Time;durP1;ratioP1;P1;durP2;ratioP2;P2;SDS_P1;SDS_P2;PMS_P1;PMS_P2;Temp;Humidity;BMP_temperature;BMP_pressure;BME280_temperature;BME280_humidity;BME280_pressure;Samples;Min_cycle;Max_cycle;Signal;HPM_P1;HPM_P2
2022/08/30 00:02:23;;;;;;;4.60;2.90;;;;;;;22.73;76.79;99057.41;4913860;29;20697;-64
2022/08/30 00:04:50;;;;;;;4.63;3.13;;;;;;;22.63;77.39;99058.72;4913944;29;20242;-64
2022/08/30 00:07:17;;;;;;;7.90;3.00;;;;;;;22.57;77.49;99062.91;4913580;29;20211;-64
2022/08/30 00:09:44;;;;;;;2.87;2.43;;;;;;;22.48;77.62;99061.41;4913807;29;20213;-65
2022/08/30 00:12:11;;;;;;;4.60;3.40;;;;;;;22.56;78.06;99066.50;4913736;29;20210;-64
2022/08/30 00:14:38;;;;;;;6.57;3.23;;;;;;;22.52;77.99;99062.69;4913878;29;20610;-65
2022/08/30 00:17:05;;;;;;;3.50;2.90;;;;;;;22.48;78.27;99067.44;4913462;29;20218;-65
2022/08/30 00:19:33;;;;;;;4.30;3.20;;;;;;;22.38;78.52;99062.56;4913603;29;20202;-64
2022/08/30 00:22:00;;;;;;;5.33;3.43;;;;;;;22.29;79.06;99066.28;4913442;29;20237;-64
2022/08/30 00:24:27;;;;;;;3.43;2.70;;;;;;;22.25;78.78;99062.47;4913687;29;20214;-64
2022/08/30 00:26:54;;;;;;;4.27;3.07;;;;;;;22.27;78.98;99064.84;4913482;29;20280;-64
2022/08/30 00:29:21;;;;;;;4.17;3.10;;;;;;;22.26;79.31;99065.84;4913469;29;20202;-64
2022/08/30 00:31:48;;;;;;;4.87;3.00;;;;;;;22.31;79.01;99066.91;4913456;29;20226;-65
2022/08/30 00:34:15;;;;;;;4.07;3.10;;;;;;;22.43;78.80;99069.00;4913211;29;20214;-65
2022/08/30 00:36:43;;;;;;;5.07;3.13;;;;;;;22.38;78.79;99072.97;4913505;29;20243;-64
2022/08/30 00:39:10;;;;;;;4.87;3.00;;;;;;;22.38;79.02;99072.97;4913008;29;20210;-64
2022/08/30 00:41:38;;;;;;;4.07;2.77;;;;;;;22.31;79.28;99077.34;4913410;29;20356;-64
2022/08/30 00:44:06;;;;;;;5.10;3.47;;;;;;;22.26;79.71;99078.88;4913324;29;20219;-64
2022/08/30 00:46:33;;;;;;;4.50;2.80;;;;;;;22.21;79.62;99084.63;4913076;29;20253;-64
2022/08/30 00:49:04;;;;;;;5.00;3.00;;;;;;;22.19;79.63;99084.00;4913283;29;20216;-65
2022/08/30 00:51:32;;;;;;;4.23;3.20;;;;;;;22.21;79.92;99084.63;4913168;29;20237;-65
2022/08/30 00:54:01;;;;;;;5.13;3.23;;;;;;;22.29;80.07;99092.34;4913212;29;20220;-65
2022/08/30 00:56:30;;;;;;;4.90;3.07;;;;;;;22.30;80.11;99098.34;4913141;29;20230;-65
2022/08/30 00:59:00;;;;;;;6.40;3.10;;;;;;;22.24;80.37;99091.28;4913151;29;20207;-65
2022/08/30 01:01:28;;;;;;;4.80;2.90;;;;;;;22.17;80.89;99096.44;4913477;29;20221;-65
2022/08/30 01:03:55;;;;;;;4.23;2.83;;;;;;;22.09;80.64;99099.91;4913036;29;20203;-64
2022/08/30 01:06:22;;;;;;;3.80;2.93;;;;;;;22.02;80.98;99093.84;4912559;29;20720;-64
2022/08/30 01:08:49;;;;;;;3.17;2.80;;;;;;;21.99;81.31;99093.38;4913032;29;20226;-64
2022/08/30 01:11:20;;;;;;;4.57;3.00;;;;;;;22.01;81.24;99094.03;4913318;29;20700;-65
2022/08/30 01:13:48;;;;;;;3.70;2.80;;;;;;;21.97;81.25;99087.56;4912953;29;20215;-65
2022/08/30 01:16:15;;;;;;;5.83;3.20;;;;;;;22.01;81.12;99083.59;4913188;29;20222;-64
2022/08/30 01:18:42;;;;;;;4.67;2.57;;;;;;;22.00;80.83;99084.59;4912927;29;20208;-64
2022/08/30 01:21:17;;;;;;;5.23;3.23;;;;;;;22.05;80.10;99082.22;4912973;29;20230;-64
2022/08/30 01:23:49;;;;;;;5.17;3.17;;;;;;;22.02;80.34;99077.41;4912839;29;20669;-64
2022/08/30 01:26:16;;;;;;;4.27;2.90;;;;;;;22.06;80.16;99078.66;4912641;29;20246;-64
2022/08/30 01:28:47;;;;;;;3.67;2.70;;;;;;;22.07;79.74;99070.66;4912938;29;20206;-64
2022/08/30 01:31:14;;;;;;;4.47;2.80;;;;;;;22.10;79.28;99072.06;4913020;29;20293;-64
2022/08/30 01:33:41;;;;;;;4.30;2.63;;;;;;;22.11;79.00;99076.31;4912786;29;20697;-65
2022/08/30 01:36:11;;;;;;;3.67;2.47;;;;;;;22.12;78.90;99067.50;4912947;29;20242;-64
2022/08/30 01:38:42;;;;;;;3.17;2.60;;;;;;;22.10;78.72;99064.25;4912864;29;20208;-65
2022/08/30 01:41:15;;;;;;;4.80;2.70;;;;;;;22.16;77.83;99068.72;4912796;29;20225;-65
2022/08/30 01:43:42;;;;;;;4.13;2.40;;;;;;;22.22;77.66;99073.22;4912730;29;20226;-64
2022/08/30 01:46:10;;;;;;;3.37;2.40;;;;;;;22.19;76.82;99068.38;4912972;29;20243;-64
2022/08/30 01:48:37;;;;;;;3.50;2.30;;;;;;;22.22;76.28;99067.22;4912810;29;20353;-63
2022/08/30 01:51:05;;;;;;;3.30;2.33;;;;;;;22.30;75.68;99065.28;4915562;29;20240;-65
2022/08/30 01:53:32;;;;;;;4.67;2.90;;;;;;;22.39;75.11;99068.56;4916196;29;20217;-65
2022/08/30 01:55:59;;;;;;;3.43;2.30;;;;;;;22.39;75.01;99068.56;4915900;29;20251;-64
2022/08/30 01:58:28;;;;;;;3.00;2.40;;;;;;;22.40;74.60;99070.19;4916144;29;20214;-64
2022/08/30 02:00:55;;;;;;;4.23;2.63;;;;;;;22.42;74.88;99062.97;4915833;29;20231;-64
2022/08/30 02:03:23;;;;;;;4.03;2.67;;;;;;;22.48;74.50;99071.84;4915967;29;20456;-65
2022/08/30 02:05:50;;;;;;;3.73;2.47;;;;;;;22.54;74.57;99060.66;4916169;29;20347;-64
2022/08/30 02:08:17;;;;;;;3.13;2.20;;;;;;;22.64;73.98;99065.56;4916308;29;20207;-64
2022/08/30 02:10:44;;;;;;;2.97;2.23;;;;;;;22.59;73.09;99060.91;4915854;29;20242;-64
2022/08/30 02:13:11;;;;;;;2.67;1.93;;;;;;;22.56;73.22;99063.91;4915771;29;20686;-64
2022/08/30 02:15:39;;;;;;;3.30;2.43;;;;;;;22.69;72.73;99056.19;4915852;29;20225;-65
2022/08/30 02:18:06;;;;;;;3.23;2.40;;;;;;;22.61;73.60;99061.53;4915625;29;20206;-64
2022/08/30 02:20:32;;;;;;;3.87;2.60;;;;;;;22.58;72.82;99056.72;4915785;29;20230;-65
2022/08/30 02:22:59;;;;;;;3.50;2.40;;;;;;;22.61;73.33;99064.16;4915690;29;20799;-64
2022/08/30 02:25:26;;;;;;;2.80;2.37;;;;;;;22.52;72.80;99060.88;4915537;29;20233;-65
2022/08/30 02:27:53;;;;;;;3.10;2.47;;;;;;;22.56;72.35;99063.91;4915745;29;20225;-64
2022/08/30 02:30:20;;;;;;;3.50;2.60;;;;;;;22.60;73.38;99057.31;4915581;29;20234;-64
2022/08/30 02:32:48;;;;;;;5.13;2.63;;;;;;;22.53;72.94;99064.28;4915438;29;20207;-64
2022/08/30 02:35:15;;;;;;;3.37;2.33;;;;;;;22.60;72.45;99065.13;4915287;29;20238;-65
2022/08/30 02:37:41;;;;;;;3.33;2.20;;;;;;;22.53;72.25;99059.06;4915745;29;20226;-65
2022/08/30 02:40:10;;;;;;;2.63;2.10;;;;;;;22.62;72.19;99063.13;4915446;29;20260;-64
2022/08/30 02:42:36;;;;;;;3.77;2.47;;;;;;;22.54;72.08;99055.47;4915278;29;20685;-65
2022/08/30 02:45:04;;;;;;;3.13;2.17;;;;;;;22.53;72.23;99059.88;4915366;29;20233;-64
2022/08/30 02:47:31;;;;;;;2.87;2.10;;;;;;;22.48;72.70;99062.22;4915095;29;20244;-64
2022/08/30 02:49:59;;;;;;;3.77;2.77;;;;;;;22.52;71.78;99057.47;4915345;29;20211;-65
2022/08/30 02:52:27;;;;;;;3.23;2.23;;;;;;;22.53;72.47;99066.88;4915019;29;20207;-64
2022/08/30 02:54:55;;;;;;;2.87;2.23;;;;;;;22.58;72.13;99061.91;4915044;29;20203;-64
2022/08/30 02:57:21;;;;;;;2.47;2.17;;;;;;;22.67;71.66;99066.00;4914953;29;20708;-65
2022/08/30 02:59:48;;;;;;;4.17;2.20;;;;;;;22.60;71.76;99058.13;4914927;29;20214;-65
2022/08/30 03:02:15;;;;;;;3.83;2.43;;;;;;;22.58;71.92;99064.53;4914600;29;20218;-65
2022/08/30 03:04:43;;;;;;;3.00;2.27;;;;;;;22.58;72.44;99067.13;4914954;29;20205;-64
2022/08/30 03:07:12;;;;;;;3.67;2.40;;;;;;;22.53;72.76;99074.69;4915286;29;20721;-64
2022/08/30 03:09:40;;;;;;;3.03;2.30;;;;;;;22.54;73.12;99076.31;4914959;29;20215;-64
2022/08/30 03:12:07;;;;;;;2.40;1.80;;;;;;;22.52;73.25;99070.50;4914862;29;20235;-64
2022/08/30 03:14:35;;;;;;;2.37;1.77;;;;;;;22.56;72.67;99074.31;4915056;29;20562;-65
2022/08/30 03:17:02;;;;;;;3.17;2.40;;;;;;;22.64;72.87;99071.59;4914663;29;20276;-64
2022/08/30 03:19:29;;;;;;;3.40;2.43;;;;;;;22.68;72.92;99077.22;4914866;29;20212;-64
2022/08/30 03:21:56;;;;;;;2.80;2.20;;;;;;;22.67;72.72;99075.63;4914471;29;20238;-65
2022/08/30 03:24:25;;;;;;;3.67;2.30;;;;;;;22.69;73.50;99079.66;4914544;29;20207;-64
2022/08/30 03:26:52;;;;;;;3.30;2.40;;;;;;;22.70;73.01;99080.44;4914322;29;20302;-64
2022/08/30 03:29:19;;;;;;;3.33;2.40;;;;;;;22.65;73.79;99077.59;4914721;29;20242;-65
2022/08/30 03:31:46;;;;;;;3.90;2.53;;;;;;;22.68;73.30;99088.44;4914396;29;20224;-65
2022/08/30 03:34:13;;;;;;;3.45;2.25;;;;;;;22.65;73.41;99086.22;4914629;29;20212;-64
2022/08/30 03:36:40;;;;;;;3.10;2.20;;;;;;;22.63;73.48;99088.22;4914493;29;20227;-64
2022/08/30 03:39:08;;;;;;;2.73;1.97;;;;;;;22.71;73.55;99085.47;4914608;29;20213;-64
2022/08/30 03:41:36;;;;;;;2.60;2.07;;;;;;;22.62;73.43;99077.97;4914100;29;20223;-64
2022/08/30 03:44:03;;;;;;;3.23;2.10;;;;;;;22.62;72.67;99094.41;4914172;29;20214;-64
2022/08/30 03:46:30;;;;;;;3.30;2.30;;;;;;;22.62;73.37;99094.41;4914221;29;20239;-64
2022/08/30 03:48:57;;;;;;;3.23;2.23;;;;;;;22.62;72.85;99094.41;4914141;29;20201;-65
2022/08/30 03:51:25;;;;;;;2.80;2.10;;;;;;;22.63;73.17;99101.25;4913838;29;20239;-65
2022/08/30 03:53:52;;;;;;;6.33;2.60;;;;;;;22.62;73.45;99093.63;4914191;29;20199;-64
2022/08/30 03:56:19;;;;;;;3.77;2.80;;;;;;;22.61;73.61;99098.03;4913884;29;20216;-64
2022/08/30 03:58:48;;;;;;;3.93;2.97;;;;;;;22.63;73.36;99103.88;4914192;29;20269;-64
2022/08/30 04:01:15;;;;;;;4.23;2.87;;;;;;;22.62;73.71;99104.03;4913949;29;20232;-64
2022/08/30 04:03:42;;;;;;;3.50;2.30;;;;;;;22.58;73.69;99108.81;4913929;29;20200;-64
2022/08/30 04:06:09;;;;;;;5.28;2.53;;;;;;;22.58;74.24;99108.81;4913767;29;20246;-65
2022/08/30 04:08:36;;;;;;;3.22;2.35;;;;;;;22.61;74.27;99108.44;4913710;29;20223;-64
2022/08/30 04:11:03;;;;;;;3.45;2.38;;;;;;;22.55;74.28;99109.19;4913738;29;20634;-64
2022/08/30 04:13:29;;;;;;;3.70;2.40;;;;;;;22.53;74.53;99109.38;4913172;29;20200;-64
2022/08/30 04:15:58;;;;;;;3.60;2.20;;;;;;;22.52;75.11;99112.19;4913857;29;20232;-64
2022/08/30 04:18:25;;;;;;;3.78;2.42;;;;;;;22.51;75.00;99118.38;4913627;29;20482;-64
2022/08/30 04:20:52;;;;;;;3.63;2.58;;;;;;;22.48;75.20;99113.53;4913511;29;20231;-64
2022/08/30 04:23:19;;;;;;;2.73;2.23;;;;;;;22.57;75.65;99117.63;4913471;29;20204;-64
2022/08/30 04:25:46;;;;;;;4.20;2.70;;;;;;;22.52;75.80;99115.59;4913700;29;20238;-64
2022/08/30 04:28:13;;;;;;;3.42;2.60;;;;;;;22.59;75.82;99124.25;4913263;29;20239;-65
2022/08/30 04:30:42;;;;;;;2.50;2.20;;;;;;;22.66;76.18;99120.91;4913419;29;20759;-65
2022/08/30 04:33:10;;;;;;;2.60;2.03;;;;;;;22.66;75.88;99121.72;4913512;29;20210;-65
2022/08/30 04:35:41;;;;;;;4.50;2.53;;;;;;;22.72;75.94;99127.97;4913379;29;20235;-65
2022/08/30 04:38:07;;;;;;;2.40;1.98;;;;;;;22.78;75.79;99128.03;4913526;29;20211;-64
2022/08/30 04:40:35;;;;;;;3.65;2.35;;;;;;;22.79;75.61;99131.44;4913280;29;20224;-65
2022/08/30 04:43:02;;;;;;;4.18;2.60;;;;;;;22.86;76.24;99136.69;4913391;29;20220;-64
2022/08/30 04:45:29;;;;;;;3.38;1.90;;;;;;;22.89;77.20;99136.31;4913180;29;20228;-64
2022/08/30 04:47:56;;;;;;;4.07;2.22;;;;;;;22.96;76.32;99138.03;4913215;29;20243;-64
2022/08/30 04:50:24;;;;;;;3.30;2.40;;;;;;;23.07;76.31;99134.09;4913522;29;20238;-63
2022/08/30 04:52:51;;;;;;;5.55;2.60;;;;;;;23.13;75.82;99138.56;4913084;29;20196;-64
2022/08/30 04:55:18;;;;;;;4.82;2.58;;;;;;;23.30;75.61;99138.22;4912981;29;20228;-65
2022/08/30 04:57:45;;;;;;;3.28;2.42;;;;;;;23.42;75.80;99145.34;4913175;29;20601;-64
2022/08/30 05:00:14;;;;;;;3.40;2.60;;;;;;;23.37;74.44;99142.50;4913101;29;20239;-64
2022/08/30 05:02:41;;;;;;;3.75;2.72;;;;;;;23.55;75.71;99152.44;4913351;29;20622;-64
2022/08/30 05:07:55;;;;;;;3.90;2.90;;;;;;;23.61;75.17;99156.88;4913111;29;20294;-64
2022/08/30 05:10:22;;;;;;;3.38;2.58;;;;;;;23.70;74.77;99163.56;4913113;29;20220;-64
2022/08/30 05:12:49;;;;;;;3.15;2.60;;;;;;;23.92;75.94;99163.47;4912892;29;20267;-64
2022/08/30 05:15:16;;;;;;;3.60;2.47;;;;;;;24.08;74.93;99152.66;4912791;29;20235;-65
2022/08/30 05:17:43;;;;;;;6.22;2.78;;;;;;;24.18;73.61;99165.38;4913265;29;20231;-65
2022/08/30 05:20:11;;;;;;;3.78;2.42;;;;;;;24.33;73.16;99162.59;4913009;29;20232;-64
2022/08/30 05:22:39;;;;;;;3.30;2.92;;;;;;;24.58;74.15;99160.22;4912989;29;20625;-64
2022/08/30 05:25:08;;;;;;;4.13;2.65;;;;;;;24.62;72.68;99170.09;4914762;29;20227;-64
2022/08/30 05:27:36;;;;;;;3.30;2.58;;;;;;;24.78;71.48;99160.25;4916643;29;20240;-65
2022/08/30 05:30:05;;;;;;;5.22;2.60;;;;;;;24.70;70.16;99170.94;4916598;29;20328;-64
2022/08/30 05:32:31;;;;;;;3.03;2.35;;;;;;;24.88;72.27;99165.91;4916934;29;20212;-64
2022/08/30 05:34:58;;;;;;;3.50;2.55;;;;;;;24.92;70.79;99167.09;4916578;29;20207;-64
2022/08/30 05:37:25;;;;;;;5.18;2.85;;;;;;;24.94;69.86;99172.94;4916407;29;20212;-64
2022/08/30 05:39:53;;;;;;;3.97;2.65;;;;;;;24.96;69.81;99173.53;4916467;29;20255;-65
2022/08/30 05:42:21;;;;;;;4.68;2.65;;;;;;;24.92;70.98;99177.53;4916316;29;20694;-64
2022/08/30 05:44:51;;;;;;;3.88;2.90;;;;;;;25.05;69.51;99185.41;4916510;29;20601;-65
2022/08/30 05:47:17;;;;;;;3.60;2.53;;;;;;;25.26;70.32;99192.25;4916520;29;20345;-65
2022/08/30 05:49:44;;;;;;;3.63;2.67;;;;;;;25.44;68.35;99201.28;4916198;29;20208;-65
2022/08/30 05:52:14;;;;;;;3.95;2.95;;;;;;;25.58;69.49;99195.00;4916077;29;20575;-65
2022/08/30 05:54:41;;;;;;;4.28;2.67;;;;;;;25.60;68.69;99208.72;4916513;29;20204;-65
2022/08/30 05:57:08;;;;;;;3.58;2.53;;;;;;;25.49;69.51;99212.75;4915919;29;20212;-64
2022/08/30 05:59:36;;;;;;;5.53;2.88;;;;;;;25.48;69.57;99216.41;4916464;29;20300;-65
2022/08/30 06:02:04;;;;;;;4.47;2.97;;;;;;;25.53;69.31;99219.19;4915699;29;20605;-64
2022/08/30 06:04:30;;;;;;;2.83;2.22;;;;;;;25.65;68.98;99219.34;4916009;29;20216;-64
2022/08/30 06:06:57;;;;;;;3.13;2.35;;;;;;;25.75;68.27;99217.13;4915840;29;20263;-65
2022/08/30 06:09:24;;;;;;;3.70;2.67;;;;;;;26.11;68.75;99220.25;4916165;29;20212;-65
2022/08/30 06:11:51;;;;;;;4.80;2.92;;;;;;;26.35;68.17;99216.88;4915763;29;20710;-64
2022/08/30 06:14:18;;;;;;;3.13;2.38;;;;;;;26.52;69.92;99230.34;4915825;29;20208;-64
2022/08/30 06:16:46;;;;;;;3.25;2.60;;;;;;;26.56;66.11;99228.13;4916067;29;20220;-65
2022/08/30 06:19:14;;;;;;;3.70;2.88;;;;;;;26.41;64.88;99233.59;4915695;29;20604;-65
2022/08/30 06:21:43;;;;;;;3.28;2.53;;;;;;;26.49;68.25;99235.19;4916126;29;20228;-64
2022/08/30 06:24:13;;;;;;;3.90;2.78;;;;;;;26.51;65.69;99241.84;4915823;29;20769;-65
2022/08/30 06:26:41;;;;;;;4.70;3.10;;;;;;;26.23;66.98;99244.78;4915776;29;20224;-64
2022/08/30 06:29:09;;;;;;;4.57;2.72;;;;;;;26.33;65.66;99247.78;4915507;29;20729;-64
2022/08/30 06:31:36;;;;;;;3.70;2.70;;;;;;;26.51;66.67;99246.31;4915499;29;20230;-65
2022/08/30 06:34:04;;;;;;;3.13;2.67;;;;;;;26.45;64.32;99242.66;4915521;29;20200;-65
2022/08/30 06:36:31;;;;;;;4.13;2.83;;;;;;;26.49;66.27;99243.84;4914904;29;20232;-64
2022/08/30 06:38:59;;;;;;;3.22;2.60;;;;;;;26.55;64.40;99250.09;4915422;29;20208;-65
2022/08/30 06:41:29;;;;;;;4.05;3.10;;;;;;;26.90;66.24;99244.44;4915162;29;20220;-65
2022/08/30 06:43:57;;;;;;;4.10;2.90;;;;;;;27.31;65.42;99231.63;4915567;29;20219;-65
2022/08/30 06:46:26;;;;;;;3.45;2.75;;;;;;;27.56;63.74;99238.63;4915252;29;20228;-65
2022/08/30 06:48:54;;;;;;;4.05;2.72;;;;;;;27.93;62.63;99243.94;4915415;29;20516;-65
2022/08/30 06:51:23;;;;;;;3.50;2.90;;;;;;;28.28;62.88;99236.22;4915056;29;20228;-65
2022/08/30 06:53:50;;;;;;;3.33;2.40;;;;;;;28.53;58.75;99254.50;4915269;29;20200;-65
2022/08/30 06:56:18;;;;;;;4.10;2.90;;;;;;;28.86;61.13;99237.47;4915130;29;20229;-65
2022/08/30 06:58:46;;;;;;;3.80;2.53;;;;;;;28.83;56.66;99248.44;4915344;29;20211;-65
2022/08/30 07:01:15;;;;;;;3.47;2.75;;;;;;;28.86;58.83;99246.16;4914997;29;20231;-65
2022/08/30 07:03:41;;;;;;;2.90;2.50;;;;;;;29.19;59.35;99246.69;4915022;29;20733;-65
2022/08/30 07:06:09;;;;;;;3.28;2.42;;;;;;;29.52;60.72;99243.44;4915177;29;20247;-65
2022/08/30 07:08:37;;;;;;;3.97;2.55;;;;;;;29.72;59.19;99251.03;4914751;29;20721;-65
2022/08/30 07:11:05;;;;;;;4.13;2.80;;;;;;;29.84;58.65;99246.53;4914752;29;20718;-65
2022/08/30 07:13:32;;;;;;;3.97;2.75;;;;;;;29.82;54.56;99245.97;4914716;29;20236;-65
2022/08/30 07:15:59;;;;;;;3.53;2.75;;;;;;;29.92;52.77;99246.16;4914856;29;20606;-66
2022/08/30 07:21:12;;;;;;;3.00;2.58;;;;;;;30.00;52.00;99266.09;4914828;29;20369;-65
2022/08/30 07:23:41;;;;;;;4.97;2.78;;;;;;;30.19;52.04;99264.09;4914710;29;20235;-66
2022/08/30 07:26:11;;;;;;;3.30;2.72;;;;;;;30.12;51.62;99266.06;4914633;29;20718;-65
2022/08/30 07:28:39;;;;;;;3.90;2.80;;;;;;;30.37;51.68;99274.50;4914541;29;20330;-65
2022/08/30 07:31:08;;;;;;;4.55;2.78;;;;;;;30.30;52.17;99276.47;4914420;29;20228;-65
2022/08/30 07:33:35;;;;;;;3.80;2.90;;;;;;;29.76;53.37;99281.16;4914560;29;20200;-65
2022/08/30 07:36:03;;;;;;;2.90;2.55;;;;;;;30.13;52.59;99283.47;4914516;29;20232;-65
2022/08/30 07:38:30;;;;;;;3.35;2.72;;;;;;;30.08;53.00;99284.19;4914281;29;20204;-65
2022/08/30 07:41:00;;;;;;;3.47;2.72;;;;;;;30.18;50.20;99280.94;4914367;29;20718;-65
2022/08/30 07:43:27;;;;;;;4.40;3.20;;;;;;;29.81;52.48;99270.72;4914463;29;20232;-65
2022/08/30 07:45:54;;;;;;;4.40;3.03;;;;;;;30.01;56.27;99280.88;4914550;29;20239;-65
2022/08/30 07:48:21;;;;;;;4.30;2.85;;;;;;;30.49;54.17;99281.56;4913180;29;20334;-66
2022/08/30 07:50:48;;;;;;;3.08;2.50;;;;;;;30.38;51.77;99283.22;4914486;29;20220;-66
2022/08/30 07:53:15;;;;;;;3.83;3.03;;;;;;;29.82;50.72;99274.97;4914047;29;20200;-65
2022/08/30 07:55:41;;;;;;;4.35;3.10;;;;;;;29.71;52.40;99275.78;4914087;29;20268;-65
2022/08/30 07:58:10;;;;;;;4.25;2.80;;;;;;;29.82;52.77;99272.34;4913837;29;20215;-65
2022/08/30 08:00:36;;;;;;;3.33;2.80;;;;;;;29.61;52.51;99276.31;4914145;29;20714;-65
2022/08/30 08:03:07;;;;;;;4.80;2.90;;;;;;;29.58;53.80;99283.88;4913984;29;20215;-65
2022/08/30 08:05:37;;;;;;;4.88;3.13;;;;;;;29.54;56.51;99281.72;4913745;29;20242;-65
2022/08/30 08:08:04;;;;;;;4.88;3.03;;;;;;;29.57;53.59;99285.72;4913619;29;20235;-66
2022/08/30 08:10:32;;;;;;;5.32;3.33;;;;;;;29.31;55.12;99293.03;4914113;29;20234;-65
2022/08/30 08:13:00;;;;;;;3.08;2.70;;;;;;;29.44;58.23;99292.03;4913631;29;20208;-65
2022/08/30 08:15:28;;;;;;;4.03;2.60;;;;;;;29.24;56.78;99294.19;4914082;29;20224;-65
2022/08/30 08:17:55;;;;;;;4.65;3.10;;;;;;;29.14;55.16;99292.09;4913711;29;20207;-65
2022/08/30 08:20:24;;;;;;;3.88;2.88;;;;;;;29.13;54.34;99285.25;4913771;29;20624;-66
2022/08/30 08:22:50;;;;;;;5.82;3.25;;;;;;;29.18;56.74;99281.94;4913574;29;20214;-66
2022/08/30 08:25:17;;;;;;;4.20;3.08;;;;;;;29.31;55.18;99282.50;4913748;29;20231;-66
2022/08/30 08:27:47;;;;;;;4.10;2.80;;;;;;;29.33;53.81;99287.56;4913491;29;20251;-66
2022/08/30 08:30:14;;;;;;;3.90;3.10;;;;;;;29.30;55.74;99290.66;4913797;29;20228;-65
2022/08/30 08:32:42;;;;;;;4.20;3.05;;;;;;;29.52;55.93;99289.03;4913429;29;20608;-65
2022/08/30 08:35:10;;;;;;;3.97;3.10;;;;;;;29.63;54.33;99289.31;4913632;29;20224;-65
2022/08/30 08:37:37;;;;;;;5.25;3.13;;;;;;;30.01;56.34;99280.88;4913341;29;20259;-66
2022/08/30 08:40:05;;;;;;;4.15;3.08;;;;;;;30.43;54.46;99280.69;4913382;29;20696;-66
2022/08/30 08:42:43;;;;;;;5.85;3.08;;;;;;;30.55;50.36;99275.34;4913223;29;20701;-65
2022/08/30 08:45:14;;;;;;;3.47;2.78;;;;;;;30.76;51.43;99282.56;4913319;29;20251;-65
2022/08/30 08:47:55;;;;;;;3.72;2.70;;;;;;;31.05;49.94;99274.63;4913129;29;20630;-65
2022/08/30 08:50:23;;;;;;;4.57;3.00;;;;;;;31.49;50.15;99277.41;4913214;29;20231;-66
2022/08/30 08:55:43;;;;;;;4.47;2.80;;;;;;;31.69;49.20;99268.97;4913591;29;20230;-65
2022/08/30 08:58:19;;;;;;;3.15;2.60;;;;;;;31.84;45.33;99271.00;4912872;29;20207;-66
2022/08/30 09:00:46;;;;;;;4.30;2.88;;;;;;;31.93;45.34;99265.06;4913070;29;20224;-65
2022/08/30 09:03:16;;;;;;;3.70;3.10;;;;;;;31.98;47.29;99261.69;4912985;29;20577;-66
2022/08/30 09:05:44;;;;;;;5.47;3.05;;;;;;;32.19;46.24;99270.66;4913243;29;20686;-65
2022/08/30 09:08:13;;;;;;;3.58;2.85;;;;;;;31.60;43.91;99281.81;4913024;29;20239;-65
2022/08/30 09:10:44;;;;;;;3.75;2.80;;;;;;;31.63;48.02;99270.75;4913177;29;20228;-66
2022/08/30 09:13:10;;;;;;;3.83;2.90;;;;;;;31.63;44.95;99276.03;4913188;29;20204;-65
2022/08/30 09:15:37;;;;;;;3.20;2.85;;;;;;;31.37;46.37;99276.72;4913091;29;20228;-66
2022/08/30 09:18:07;;;;;;;3.58;2.95;;;;;;;31.60;45.55;99271.22;4913003;29;20208;-66
2022/08/30 09:20:40;;;;;;;6.63;4.07;;;;;;;31.78;47.84;99281.50;4913171;29;20236;-65
2022/08/30 09:23:22;;;;;;;2.95;2.65;;;;;;;31.82;47.85;99278.38;4912796;29;20232;-66
2022/08/30 09:25:51;;;;;;;4.30;3.15;;;;;;;31.56;44.18;99275.38;4912942;29;20239;-66
2022/08/30 09:28:23;;;;;;;3.85;2.92;;;;;;;31.53;46.44;99265.31;4912672;29;20246;-65
2022/08/30 09:31:00;;;;;;;3.55;2.95;;;;;;;31.22;46.26;99270.13;4912900;29;20729;-66
2022/08/30 09:33:27;;;;;;;4.78;3.00;;;;;;;31.56;46.85;99272.75;4912774;29;20204;-65
2022/08/30 09:35:57;;;;;;;3.25;2.90;;;;;;;31.66;46.11;99267.59;4912763;29;20240;-66
2022/08/30 09:38:28;;;;;;;3.55;2.95;;;;;;;31.91;49.57;99266.34;4912589;29;20239;-66
2022/08/30 09:40:57;;;;;;;3.85;3.08;;;;;;;31.77;44.29;99266.69;4913062;29;20406;-65
2022/08/30 09:43:26;;;;;;;3.90;3.08;;;;;;;31.91;46.21;99261.06;4912931;29;20208;-66
2022/08/30 09:46:09;;;;;;;4.47;3.20;;;;;;;31.75;44.40;99258.19;4912913;29;20272;-66
2022/08/30 09:48:39;;;;;;;3.90;3.10;;;;;;;32.22;47.46;99251.63;4912632;29;20236;-66
2022/08/30 09:51:21;;;;;;;5.10;2.90;;;;;;;32.38;41.50;99244.66;4912866;29;20228;-66
2022/08/30 09:53:56;;;;;;;3.80;3.05;;;;;;;32.57;44.36;99243.25;4912859;29;20577;-66
2022/08/30 09:56:30;;;;;;;5.00;3.15;;;;;;;32.47;42.12;99243.19;4912604;29;20223;-66
2022/08/30 09:59:07;;;;;;;3.80;3.00;;;;;;;32.50;42.25;99242.69;4912896;29;20568;-66
2022/08/30 10:01:40;;;;;;;4.90;3.20;;;;;;;32.67;43.85;99232.78;4912534;29;20228;-66
2022/08/30 10:04:16;;;;;;;3.67;3.00;;;;;;;32.58;42.77;99236.94;4912445;29;20204;-66
2022/08/30 10:06:52;;;;;;;4.72;3.10;;;;;;;32.94;41.87;99236.41;4912691;29;20624;-65
2022/08/30 10:09:33;;;;;;;3.47;3.03;;;;;;;33.25;43.17;99221.53;4912576;29;20220;-66
2022/08/30 10:12:08;;;;;;;5.18;3.30;;;;;;;33.32;43.05;99230.06;4915691;29;20220;-66
2022/08/30 10:14:50;;;;;;;4.43;3.15;;;;;;;33.65;41.25;99225.47;4916019;29;20223;-66
2022/08/30 10:17:37;;;;;;;4.18;2.95;;;;;;;33.26;41.35;99228.44;4916046;29;20211;-66
2022/08/30 10:20:23;;;;;;;3.60;2.88;;;;;;;33.23;40.40;99229.75;4916008;29;20232;-66
2022/08/30 10:22:56;;;;;;;4.22;3.10;;;;;;;33.31;39.36;99236.44;4915958;29;20192;-66
2022/08/30 10:25:28;;;;;;;4.35;3.15;;;;;;;33.23;41.81;99234.25;4915513;29;20231;-67
2022/08/30 10:28:02;;;;;;;3.20;2.90;;;;;;;33.48;43.87;99238.88;4915512;29;20211;-66
2022/08/30 10:30:31;;;;;;;4.10;2.97;;;;;;;33.57;43.46;99235.53;4915855;29;20232;-66
2022/08/30 10:33:03;;;;;;;4.32;3.20;;;;;;;33.39;39.37;99243.88;4915484;29;20232;-66
2022/08/30 10:35:36;;;;;;;4.03;3.35;;;;;;;32.59;40.47;99235.09;4915906;29;20639;-66
2022/08/30 10:38:10;;;;;;;4.57;3.47;;;;;;;32.44;41.27;99233.06;4915483;29;20204;-66
2022/08/30 10:43:30;;;;;;;4.15;3.28;;;;;;;32.57;41.96;99224.72;4915383;29;20589;-66
2022/08/30 10:46:01;;;;;;;4.40;2.80;;;;;;;32.63;39.61;99209.69;4915378;29;20311;-66
2022/08/30 10:48:32;;;;;;;3.88;2.88;;;;;;;32.73;40.21;99219.59;4915243;29;20483;-67
2022/08/30 10:51:06;;;;;;;4.20;3.25;;;;;;;32.79;41.87;99211.41;4915214;29;20228;-66
2022/08/30 10:53:43;;;;;;;4.55;2.90;;;;;;;33.08;41.63;99217.22;4915395;29;20214;-66
2022/08/30 10:56:12;;;;;;;4.18;2.85;;;;;;;32.99;38.87;99216.09;4915115;29;20266;-66
2022/08/30 10:58:40;;;;;;;3.60;2.95;;;;;;;33.19;40.63;99211.97;4915070;29;20219;-66
2022/08/30 11:01:22;;;;;;;4.53;3.08;;;;;;;33.44;39.07;99204.16;4915246;29;20224;-66
2022/08/30 11:04:13;;;;;;;4.18;3.13;;;;;;;33.34;37.37;99209.41;4915034;29;20598;-66
2022/08/30 11:06:46;;;;;;;3.75;2.70;;;;;;;33.42;38.65;99200.94;4915368;29;20236;-66
2022/08/30 11:09:32;;;;;;;3.63;3.10;;;;;;;33.42;36.24;99200.94;4914872;29;20232;-66
2022/08/30 11:12:21;;;;;;;3.85;3.03;;;;;;;33.42;38.02;99198.31;4914983;29;20223;-66
2022/08/30 11:14:48;;;;;;;3.30;2.67;;;;;;;33.69;39.76;99197.41;4914924;29;20204;-67
2022/08/30 11:17:29;;;;;;;4.20;2.90;;;;;;;33.84;39.19;99189.50;4915027;29;20200;-66
2022/08/30 11:20:00;;;;;;;3.55;2.83;;;;;;;33.78;42.27;99193.97;4914669;29;20301;-66
2022/08/30 11:22:29;;;;;;;4.13;2.95;;;;;;;33.95;37.73;99188.47;4914533;29;20204;-66
2022/08/30 11:25:11;;;;;;;3.05;2.67;;;;;;;33.69;37.07;99192.91;4914729;29;20560;-66
2022/08/30 11:27:44;;;;;;;3.83;3.05;;;;;;;33.80;36.64;99191.88;4914685;29;20201;-66
2022/08/30 11:30:51;;;;;;;3.38;2.80;;;;;;;33.61;35.89;99184.66;4914683;29;20253;-66
2022/08/30 11:33:43;;;;;;;3.22;2.80;;;;;;;33.71;37.07;99182.81;4885913;29;20200;-66
2022/08/30 11:36:12;;;;;;;8.27;3.15;;;;;;;33.90;41.14;99180.47;4912907;29;20228;-67
2022/08/30 11:39:02;;;;;;;4.22;3.20;;;;;;;33.79;37.84;99168.25;4914460;29;20208;-66
2022/08/30 11:41:34;;;;;;;3.78;2.90;;;;;;;33.92;41.62;99170.41;4914301;29;20232;-66
2022/08/30 11:44:30;;;;;;;4.13;2.90;;;;;;;34.14;38.93;99174.72;4914262;29;20219;-66
2022/08/30 11:46:58;;;;;;;4.82;3.15;;;;;;;33.97;37.99;99162.44;4908038;29;20224;-66
2022/08/30 11:49:44;;;;;;;3.63;3.00;;;;;;;34.46;38.85;99169.16;4913926;29;20651;-66
2022/08/30 11:52:24;;;;;;;5.55;3.20;;;;;;;34.57;37.63;99162.03;4914258;29;20204;-66
2022/08/30 11:55:03;;;;;;;4.32;3.30;;;;;;;33.97;37.58;99154.50;4914232;29;20667;-66
2022/08/30 11:57:41;;;;;;;6.28;3.30;;;;;;;33.90;37.69;99143.34;4913937;29;20196;-66